createdAt,value
2022-11-29T00:04:43.856Z,86.98
2022-11-29T00:09:46.023Z,86.96
2022-11-29T00:14:48.095Z,87.06
2022-11-29T00:19:50.139Z,87.09
2022-11-29T00:24:52.258Z,87.04
2022-11-29T00:29:54.323Z,87.25
2022-11-29T00:34:59.371Z,87.08
2022-11-29T00:40:02.126Z,87.05
2022-11-29T00:45:04.653Z,87.00
2022-11-29T00:50:07.619Z,86.79
2022-11-29T00:55:09.866Z,86.58
2022-11-29T01:00:12.539Z,86.63
2022-11-29T01:05:14.697Z,86.77
2022-11-29T01:10:17.096Z,86.60
2022-11-29T01:15:19.178Z,86.76
2022-11-29T01:20:21.509Z,86.34
2022-11-29T01:25:23.563Z,86.31
2022-11-29T01:30:25.857Z,86.02
2022-11-29T01:35:27.926Z,86.15
2022-11-29T01:40:29.966Z,85.78
2022-11-29T01:45:38.193Z,86.02
2022-11-29T01:50:41.390Z,85.97
2022-11-29T01:55:50.756Z,85.85
2022-11-29T02:00:53.071Z,85.93
2022-11-29T02:05:55.470Z,85.76
2022-11-29T02:11:17.800Z,85.35
2022-11-29T02:16:38.518Z,85.18
2022-11-29T02:21:53.411Z,85.30
2022-11-29T02:27:12.268Z,85.38
2022-11-29T02:32:52.211Z,85.56
2022-11-29T02:38:04.778Z,85.55
2022-11-29T02:43:31.289Z,85.49
2022-11-29T02:48:39.282Z,85.54
2022-11-29T02:53:47.499Z,85.52
2022-11-29T02:59:20.087Z,85.45
2022-11-29T03:04:45.715Z,85.55
2022-11-29T03:10:00.008Z,85.99
2022-11-29T03:15:18.081Z,86.01
2022-11-29T03:20:29.178Z,86.02
2022-11-29T03:26:00.821Z,86.10
2022-11-29T03:31:15.667Z,86.48
2022-11-29T03:36:41.176Z,86.25
2022-11-29T03:42:03.550Z,86.13
2022-11-29T03:47:14.647Z,86.14
2022-11-29T03:52:24.127Z,86.15
2022-11-29T03:57:39.585Z,85.94
2022-11-29T04:03:01.005Z,85.91
2022-11-29T04:08:27.633Z,85.70
2022-11-29T04:13:48.259Z,86.11
2022-11-29T04:19:40.253Z,86.51
2022-11-29T04:25:04.197Z,86.44
2022-11-29T04:30:12.199Z,86.22
2022-11-29T04:35:30.643Z,85.99
2022-11-29T04:40:44.800Z,85.81
2022-11-29T04:46:00.458Z,85.85
2022-11-29T04:51:45.412Z,86.16
2022-11-29T04:56:52.300Z,86.44
2022-11-29T05:02:09.566Z,86.30
2022-11-29T05:07:22.954Z,86.54
2022-11-29T05:12:43.051Z,86.75
2022-11-29T05:17:51.042Z,86.89
2022-11-29T05:23:11.915Z,86.82
2022-11-29T05:28:21.097Z,86.59
2022-11-29T05:33:40.351Z,86.50
2022-11-29T05:38:42.337Z,86.45
2022-11-29T05:44:03.713Z,86.21
2022-11-29T05:49:27.598Z,86.41
2022-11-29T05:54:58.944Z,86.83
2022-11-29T06:00:04.129Z,87.12
2022-11-29T06:05:17.209Z,87.36
2022-11-29T06:10:23.330Z,87.95
2022-11-29T06:15:48.654Z,88.20
2022-11-29T06:21:09.294Z,87.97
2022-11-29T06:26:34.335Z,87.69
2022-11-29T06:31:43.981Z,87.36
2022-11-29T06:37:02.317Z,87.29
2022-11-29T06:42:04.527Z,87.09
2022-11-29T06:47:15.416Z,86.94
2022-11-29T06:52:28.227Z,86.79
2022-11-29T06:57:45.414Z,86.54
2022-11-29T07:03:16.116Z,86.32
2022-11-29T07:08:24.124Z,85.86
2022-11-29T07:13:26.505Z,85.84
2022-11-29T07:18:36.648Z,85.56
2022-11-29T07:23:45.856Z,84.96
2022-11-29T07:29:06.992Z,84.83
2022-11-29T07:34:30.189Z,83.91
2022-11-29T07:39:54.130Z,83.65
2022-11-29T07:45:19.407Z,83.41
2022-11-29T07:50:21.978Z,82.22
2022-11-29T07:55:26.133Z,82.10
2022-11-29T08:00:28.309Z,82.89
2022-11-29T08:05:30.453Z,82.76
2022-11-29T08:10:32.644Z,82.23
2022-11-29T08:15:35.054Z,81.17
2022-11-29T08:20:37.178Z,80.68
2022-11-29T08:25:39.826Z,80.39
2022-11-29T08:30:41.846Z,80.38
2022-11-29T08:35:43.963Z,80.67
2022-11-29T08:40:46.327Z,80.59
2022-11-29T08:45:52.705Z,80.62
2022-11-29T08:50:56.570Z,81.00
2022-11-29T08:55:59.803Z,80.06
2022-11-29T09:01:01.918Z,79.31
2022-11-29T09:06:12.175Z,79.71
2022-11-29T09:11:17.508Z,78.99
2022-11-29T09:16:22.735Z,78.60
2022-11-29T09:21:26.854Z,78.21
2022-11-29T09:26:31.945Z,78.18
2022-11-29T09:31:35.077Z,78.25
2022-11-29T09:36:37.202Z,79.14
2022-11-29T09:41:46.993Z,79.39
2022-11-29T09:47:27.990Z,79.54
2022-11-29T09:52:57.993Z,79.65
2022-11-29T09:58:03.785Z,78.66
2022-11-29T10:03:20.791Z,78.28
2022-11-29T10:08:41.959Z,77.64
2022-11-29T10:13:50.501Z,77.35
2022-11-29T10:19:07.864Z,75.70
2022-11-29T10:24:20.267Z,75.67
2022-11-29T10:29:23.336Z,77.04
2022-11-29T10:34:26.389Z,76.48
2022-11-29T10:39:31.187Z,76.47
2022-11-29T10:44:33.779Z,75.15
2022-11-29T10:49:37.313Z,75.63
2022-11-29T10:54:44.474Z,74.98
2022-11-29T11:00:07.564Z,76.17
2022-11-29T11:05:18.842Z,77.19
2022-11-29T11:10:29.367Z,77.71
2022-11-29T11:15:33.216Z,78.28
2022-11-29T11:20:39.787Z,78.72
2022-11-29T11:25:41.953Z,78.86
2022-11-29T11:31:11.729Z,78.20
2022-11-29T11:36:23.496Z,78.23
2022-11-29T11:41:56.714Z,77.75
2022-11-29T11:47:00.081Z,76.80
2022-11-29T11:52:05.123Z,76.92
2022-11-29T11:57:17.296Z,77.21
2022-11-29T12:02:40.409Z,77.26
2022-11-29T12:08:08.720Z,77.68
2022-11-29T12:13:24.188Z,78.59
2022-11-29T12:18:44.329Z,79.50
2022-11-29T12:24:23.694Z,80.01
2022-11-29T12:29:30.473Z,79.44
2022-11-29T12:34:56.144Z,79.67
2022-11-29T12:40:04.361Z,79.81
2022-11-29T12:45:35.880Z,79.82
2022-11-29T12:50:59.790Z,79.37
2022-11-29T12:56:23.440Z,78.94
2022-11-29T13:01:41.650Z,78.87
2022-11-29T13:06:55.561Z,78.56
2022-11-29T13:12:01.916Z,78.28
2022-11-29T13:17:15.010Z,78.10
2022-11-29T13:22:38.405Z,78.14
2022-11-29T13:27:47.374Z,78.16
2022-11-29T13:33:05.809Z,78.45
2022-11-29T13:38:10.880Z,77.93
2022-11-29T13:43:24.449Z,77.79
2022-11-29T13:48:34.799Z,77.67
2022-11-29T13:53:48.445Z,78.92
2022-11-29T13:58:54.673Z,78.83
2022-11-29T14:04:07.561Z,78.94
2022-11-29T14:09:27.760Z,79.98
2022-11-29T14:14:55.448Z,80.15
2022-11-29T14:20:23.517Z,80.40
2022-11-29T14:25:50.611Z,81.25
2022-11-29T14:30:50.530Z,81.16
2022-11-29T14:36:17.714Z,81.04
2022-11-29T14:41:33.084Z,81.62
2022-11-29T14:46:35.577Z,82.16
2022-11-29T14:51:37.718Z,82.61
2022-11-29T14:56:45.298Z,82.98
2022-11-29T15:01:49.120Z,83.02
2022-11-29T15:06:55.707Z,82.97
2022-11-29T15:12:17.570Z,82.59
2022-11-29T15:17:26.316Z,82.39
2022-11-29T15:22:45.284Z,82.23
2022-11-29T15:27:58.669Z,82.35
2022-11-29T15:33:04.544Z,81.81
2022-11-29T15:38:06.676Z,81.82
2022-11-29T15:43:30.335Z,82.05
2022-11-29T15:48:33.710Z,82.15
2022-11-29T15:53:41.296Z,82.25
2022-11-29T15:58:45.070Z,82.41
2022-11-29T16:03:50.544Z,82.32
2022-11-29T16:08:54.419Z,82.52
2022-11-29T16:14:11.826Z,82.73
2022-11-29T16:19:32.558Z,82.87
2022-11-29T16:24:36.235Z,82.57
2022-11-29T16:29:45.089Z,82.44
2022-11-29T16:34:47.584Z,82.45
2022-11-29T16:39:53.795Z,82.56
2022-11-29T16:44:59.231Z,82.78
2022-11-29T16:50:20.573Z,82.98
2022-11-29T16:55:22.644Z,83.21
2022-11-29T17:00:32.877Z,83.51
2022-11-29T17:05:35.695Z,83.64
2022-11-29T17:10:40.022Z,83.70
2022-11-29T17:15:42.125Z,83.46
2022-11-29T17:20:44.240Z,83.74
2022-11-29T17:25:56.531Z,83.46
2022-11-29T17:30:58.849Z,83.38
2022-11-29T17:36:08.825Z,83.19
2022-11-29T17:41:16.959Z,83.46
2022-11-29T17:46:22.791Z,83.41
2022-11-29T17:56:47.522Z,83.37
2022-11-29T18:01:49.873Z,83.32
2022-11-29T18:06:52.014Z,83.25
2022-11-29T18:11:54.080Z,83.12
2022-11-29T18:16:56.480Z,83.17
2022-11-29T18:21:58.721Z,83.13
2022-11-29T18:27:00.783Z,83.00
2022-11-29T18:32:02.827Z,82.97
2022-11-29T18:37:04.945Z,83.00
2022-11-29T18:42:07.090Z,83.26
2022-11-29T18:47:09.120Z,83.28
2022-11-29T18:52:11.168Z,83.39
2022-11-29T18:57:13.235Z,83.48
2022-11-29T19:02:19.917Z,83.79
2022-11-29T19:07:22.056Z,83.80
2022-11-29T19:12:24.159Z,83.77
2022-11-29T19:17:26.260Z,84.00
2022-11-29T19:22:29.679Z,84.16
2022-11-29T19:27:32.067Z,83.82
2022-11-29T19:32:34.479Z,83.87
2022-11-29T19:37:36.532Z,83.80
2022-11-29T19:42:38.653Z,83.87
2022-11-29T19:47:40.734Z,83.99
2022-11-29T19:52:42.894Z,84.60
2022-11-29T19:57:44.942Z,84.60
2022-11-29T20:02:47.124Z,84.34
2022-11-29T20:07:49.315Z,84.46
2022-11-29T20:12:51.465Z,84.54
2022-11-29T20:17:53.681Z,84.70
2022-11-29T20:22:55.808Z,84.38
2022-11-29T20:27:58.319Z,84.30
2022-11-29T20:33:00.606Z,84.18
2022-11-29T20:38:16.371Z,83.96
2022-11-29T20:43:52.417Z,83.55
2022-11-29T20:48:55.250Z,83.81
2022-11-29T20:53:58.882Z,83.67
2022-11-29T20:59:01.167Z,83.33
2022-11-29T21:04:03.300Z,83.30
2022-11-29T21:09:06.181Z,83.32
2022-11-29T21:14:09.139Z,83.40
2022-11-29T21:19:18.893Z,83.43
2022-11-29T21:24:46.773Z,83.58
2022-11-29T21:29:49.475Z,83.58
2022-11-29T21:34:51.758Z,83.52
2022-11-29T21:39:55.546Z,83.74
2022-11-29T21:44:57.702Z,83.46
2022-11-29T21:49:59.853Z,83.49
2022-11-29T21:55:02.266Z,83.38
2022-11-29T22:00:05.669Z,83.34
2022-11-29T22:05:09.633Z,83.11
2022-11-29T22:10:13.482Z,83.52
2022-11-29T22:15:19.023Z,83.78
2022-11-29T22:20:23.698Z,84.65
2022-11-29T22:25:25.794Z,83.68
2022-11-29T22:30:27.970Z,83.85
2022-11-29T22:35:30.053Z,83.64
2022-11-29T22:40:32.582Z,83.46
2022-11-29T22:45:34.648Z,83.23
2022-11-29T22:50:36.662Z,82.87
2022-11-29T22:55:38.706Z,82.59
2022-11-29T23:00:44.016Z,82.43
2022-11-29T23:05:46.204Z,81.83
2022-11-29T23:10:56.962Z,81.58
2022-11-29T23:15:59.082Z,81.40
2022-11-29T23:21:08.166Z,81.33
2022-11-29T23:26:18.674Z,81.29
2022-11-29T23:31:21.727Z,80.87
2022-11-29T23:36:23.917Z,80.52
2022-11-29T23:41:26.104Z,80.30
2022-11-29T23:46:28.151Z,80.53
2022-11-29T23:51:30.224Z,80.65
2022-11-29T23:56:35.483Z,80.43
